Capitol Logistics 205




KMIA
Miami International Airport
Miami, Florida
KCVG
Cincinnati/Northern Kentucky International Airport
Covington, Kentucky

Activity Log

Date Flight Route Aircraft Duration
05/07/2022 CPX205 VACAY1 STYMY Q77 TEUFL VXV JAKIE5 B752 2h 18m
08/24/2020 CPX334 KMIA/12 WINCO2 WINCO CHRRI Q118 ATL VXV JAKIE5 KCVG/SPUDR.I18L B763 2h 20m
01/14/2020 CPX334 HEDLY2 HEDLY J81 ORL VQQ AMG VXV JAKIE4 B763 2h 47m
10/09/2019 CPX334 HEDLY2 HEDLY J81 ORL VQQ AMG VXV JAKIE4 B763 2h 29m
07/21/2019 CPX334 POTTR6 HEDLY J81 ORL VQQ AMG VXV HARDU3 B763 2h 10m
11/18/2018 CPX310 HITAG2 HEDLY J81 ORL VQQ AMG VXV HARDU4 B752 2h 18m
11/05/2018 CPX310 HEDLY2 HEDLY J81 ORL VQQ AMG VXV JAKIE4 B752 2h 35m

Route Details

Aircraft Information
Group: Equipment Varies
Types: A30F,A31F,B738,B744,B752,B762,B763,MD11
Route Data
Demand: H
Distance: 827nm
Duration: 2h 14m
Recm'd Route: AARPS1 ONEWY Q87 ZERBO Q87 VIYAP IRQ CUBIM JAKIE5
Origin Wx: KMIA 270453Z 10009KT 10SM FEW023 FEW070 27/22 A3006 RMK AO2 SLP179 OCNL LTGIC DSNT E CB DSNT E MOV NW T02670222 403110261 $
Dest. Wx: KCVG 270452Z 25008KT 10SM SCT011 BKN017 OVC022 18/17 A2982 RMK AO2 RAB17E28 SLP090 P0005 T01830172 402390178 $
Notes:

Financial History
Total Freight: 485,328lbs
Average Load: 69,333lbs/flt
Fuel Used: 162,558lbs
Avg. Fuel Used: 23,223lbs/flt
Fuel Expense: $190,696
Avg. Fuel Expense: $27,242
Avg. Fuel Cost: $1.16/lbs
Total Gross Income: $731,413
Pilot Pay: $1,003
Total Expenses: $85,244
Total Revenue: $453,777
Average Revenue: $104,487.59